WAAA/UPG METAR and TAF weather

Enter ICAO airport designator
Station Type Date Time Source
WAAA METAR 2020/07/06 20:30 UTC NOAA

WAAA 062030Z 16003KT 120V180 8000 FEW020 23/23 Q1009 NOSIG


Station Type Date Time Source
WAAA Decoded METAR 2020/07/06 20:30 UTC NOAA

Ujung Pandang / Hasanuddin, Indonesia (WAAA) 05-04S 119-33E 14M
Jul 06, 2020 - 04:30 PM EDT / 2020.07.06 2030 UTC
Wind: from the SSE (160 degrees) at 3 MPH (3 KT) (direction variable):0
Visibility: 4 mile(s):0
Sky conditions: mostly clear
Temperature: 73 F (23 C)
Dew Point: 73 F (23 C)
Relative Humidity: 100%
Pressure (altimeter): 29.80 in. Hg (1009 hPa)
ob: WAAA 062030Z 16003KT 120V180 8000 FEW020 23/23 Q1009 NOSIG
cycle: 20

Station Type Date Time Source
WAAA TAF 2020/07/06 18:08 UTC NOAA

TAF WAAA 061700Z 0618/0800 20004KT 8000 SCT019
TEMPO 0618/0622 -RA
BECMG 0701/0703 30010KT 9999

Example: see airport list